createdAt,value
2023-05-13T00:00:31.131Z,100293.08
2023-05-13T00:02:58.194Z,100296.46
2023-05-13T00:05:25.183Z,100295.00
2023-05-13T00:07:52.172Z,100300.63
2023-05-13T00:10:20.643Z,100301.88
2023-05-13T00:12:48.044Z,100303.27
2023-05-13T00:15:14.878Z,100304.17
2023-05-13T00:17:41.851Z,100304.22
2023-05-13T00:20:09.275Z,100302.69
2023-05-13T00:22:36.235Z,100300.97
2023-05-13T00:25:03.283Z,100303.27
2023-05-13T00:27:30.097Z,100302.27
2023-05-13T00:29:56.930Z,100299.65
2023-05-13T00:32:23.839Z,100301.53
2023-05-13T00:34:50.989Z,100299.95
2023-05-13T00:37:17.940Z,100297.63
2023-05-13T00:39:45.088Z,100299.01
2023-05-13T00:42:12.556Z,100298.97
2023-05-13T00:44:39.624Z,100302.07
2023-05-13T00:47:06.654Z,100300.79
2023-05-13T00:49:36.581Z,100302.64
2023-05-13T00:52:03.736Z,100302.22
2023-05-13T00:54:30.714Z,100304.83
2023-05-13T00:56:58.561Z,100309.93
2023-05-13T00:59:28.505Z,100305.17
2023-05-13T01:02:07.229Z,100303.73
2023-05-13T01:04:50.016Z,100301.25
2023-05-13T01:07:23.762Z,100302.48
2023-05-13T01:10:11.615Z,100303.10
2023-05-13T01:12:43.878Z,100305.13
2023-05-13T01:15:13.940Z,100305.89
2023-05-13T01:17:53.472Z,100302.80
2023-05-13T01:20:23.007Z,100302.79
2023-05-13T01:22:50.859Z,100299.29
2023-05-13T01:25:17.815Z,100300.70
2023-05-13T01:27:45.352Z,100300.52
2023-05-13T01:30:13.549Z,100303.69
2023-05-13T01:32:40.663Z,100301.05
2023-05-13T01:35:08.220Z,100302.98
2023-05-13T01:37:36.149Z,100300.88
2023-05-13T01:40:09.644Z,100303.89
2023-05-13T01:42:41.713Z,100302.50
2023-05-13T01:45:09.276Z,100305.00
2023-05-13T01:47:36.441Z,100304.35
2023-05-13T01:50:03.800Z,100302.48
2023-05-13T01:52:30.631Z,100305.33
2023-05-13T01:54:57.456Z,100303.48
2023-05-13T01:57:24.444Z,100303.16
2023-05-13T01:59:51.495Z,100305.52
2023-05-13T02:02:18.516Z,100303.30
2023-05-13T02:04:45.819Z,100303.22
2023-05-13T02:07:13.175Z,100305.58
2023-05-13T02:09:40.118Z,100311.98
2023-05-13T02:12:08.335Z,100310.33
2023-05-13T02:14:35.182Z,100312.50
2023-05-13T02:17:03.547Z,100316.09
2023-05-13T02:19:30.496Z,100309.29
2023-05-13T02:21:57.771Z,100310.36
2023-05-13T02:24:26.034Z,100309.19
2023-05-13T02:26:54.104Z,100312.89
2023-05-13T02:29:20.943Z,100313.98
2023-05-13T02:31:47.775Z,100312.27
2023-05-13T02:34:14.790Z,100309.46
2023-05-13T02:36:41.806Z,100316.63
2023-05-13T02:39:09.280Z,100314.19
2023-05-13T02:41:36.841Z,100317.33
2023-05-13T02:44:04.756Z,100318.57
2023-05-13T02:46:31.918Z,100318.38
2023-05-13T02:48:59.835Z,100322.07
2023-05-13T02:51:29.051Z,100323.99
2023-05-13T02:53:56.200Z,100328.20
2023-05-13T02:56:23.554Z,100334.13
2023-05-13T02:58:50.508Z,100336.05
2023-05-13T03:01:17.684Z,100337.96
2023-05-13T03:03:44.816Z,100335.45
2023-05-13T03:06:11.717Z,100339.11
2023-05-13T03:08:38.629Z,100342.08
2023-05-13T03:11:05.682Z,100342.58
2023-05-13T03:13:32.615Z,100341.91
2023-05-13T03:15:59.517Z,100344.34
2023-05-13T03:18:28.914Z,100345.52
2023-05-13T03:20:56.003Z,100344.23
2023-05-13T03:23:23.086Z,100350.15
2023-05-13T03:25:50.865Z,100349.94
2023-05-13T03:28:18.121Z,100349.56
2023-05-13T03:30:45.068Z,100352.67
2023-05-13T03:33:17.898Z,100357.40
2023-05-13T03:35:45.826Z,100362.11
2023-05-13T03:38:12.883Z,100358.94
2023-05-13T03:40:43.276Z,100359.83
2023-05-13T03:43:10.482Z,100361.02
2023-05-13T03:45:38.751Z,100363.96
2023-05-13T03:48:09.046Z,100367.63
2023-05-13T03:50:36.137Z,100372.13
2023-05-13T03:53:04.409Z,100371.55
2023-05-13T03:55:32.022Z,100370.27
2023-05-13T03:57:58.887Z,100378.46
2023-05-13T04:00:25.995Z,100375.42
2023-05-13T04:02:53.171Z,100377.48
2023-05-13T04:05:21.821Z,100377.55
2023-05-13T04:07:48.809Z,100379.40
2023-05-13T04:10:16.004Z,100382.46
2023-05-13T04:12:43.104Z,100384.31
2023-05-13T04:15:10.606Z,100382.98
2023-05-13T04:17:37.660Z,100383.58
2023-05-13T04:20:05.280Z,100380.81
2023-05-13T04:22:32.231Z,100380.18
2023-05-13T04:24:59.052Z,100381.83
2023-05-13T04:27:25.996Z,100386.11
2023-05-13T04:30:01.974Z,100388.98
2023-05-13T04:32:31.330Z,100394.11
2023-05-13T04:34:58.959Z,100392.58
2023-05-13T04:37:27.426Z,100394.17
2023-05-13T04:39:57.875Z,100398.77
2023-05-13T04:42:24.815Z,100398.25
2023-05-13T04:44:51.673Z,100398.95
2023-05-13T04:47:19.080Z,100395.95
2023-05-13T04:49:46.292Z,100398.92
2023-05-13T04:52:13.763Z,100396.41
2023-05-13T04:54:40.822Z,100397.98
2023-05-13T04:57:08.190Z,100394.45
2023-05-13T04:59:36.042Z,100390.58
2023-05-13T05:02:03.133Z,100391.46
2023-05-13T05:04:30.051Z,100390.92
2023-05-13T05:06:57.412Z,100390.23
2023-05-13T05:09:24.362Z,100394.24
2023-05-13T05:11:52.618Z,100393.51
2023-05-13T05:14:21.237Z,100396.56
2023-05-13T05:16:49.663Z,100397.37
2023-05-13T05:19:16.632Z,100394.45
2023-05-13T05:21:43.620Z,100393.48
2023-05-13T05:24:11.286Z,100397.34
2023-05-13T05:26:38.245Z,100398.84
2023-05-13T05:29:06.337Z,100395.55
2023-05-13T05:31:33.533Z,100396.36
2023-05-13T05:34:02.427Z,100397.24
2023-05-13T05:36:29.480Z,100399.45
2023-05-13T05:38:56.298Z,100398.15
2023-05-13T05:41:29.890Z,100399.11
2023-05-13T05:43:57.133Z,100397.23
2023-05-13T05:46:24.226Z,100399.00
2023-05-13T05:48:51.956Z,100400.80
2023-05-13T05:51:20.233Z,100399.57
2023-05-13T05:53:47.190Z,100405.73
2023-05-13T05:56:16.233Z,100403.13
2023-05-13T05:58:44.976Z,100399.13
2023-05-13T06:01:12.029Z,100402.52
2023-05-13T06:03:39.448Z,100401.13
2023-05-13T06:06:06.749Z,100404.94
2023-05-13T06:08:33.805Z,100401.52
2023-05-13T06:11:00.973Z,100404.31
2023-05-13T06:13:28.080Z,100406.54
2023-05-13T06:15:55.224Z,100403.41
2023-05-13T06:18:22.890Z,100402.41
2023-05-13T06:20:50.119Z,100411.98
2023-05-13T06:23:18.708Z,100411.63
2023-05-13T06:25:45.766Z,100410.76
2023-05-13T06:28:12.895Z,100410.23
2023-05-13T06:30:39.737Z,100412.81
2023-05-13T06:33:08.581Z,100407.23
2023-05-13T06:35:37.556Z,100405.33
2023-05-13T06:38:06.229Z,100411.89
2023-05-13T06:40:33.485Z,100412.41
2023-05-13T06:43:00.312Z,100407.23
2023-05-13T06:45:31.989Z,100407.30
2023-05-13T06:47:59.339Z,100410.98
2023-05-13T06:50:26.409Z,100406.65
2023-05-13T06:52:53.372Z,100407.54
2023-05-13T06:55:20.624Z,100407.33
2023-05-13T06:57:47.541Z,100406.60
2023-05-13T07:00:15.437Z,100405.27
2023-05-13T07:02:42.341Z,100404.19
2023-05-13T07:05:11.473Z,100402.10
2023-05-13T07:07:38.744Z,100402.57
2023-05-13T07:10:06.209Z,100402.52
2023-05-13T07:12:33.232Z,100397.27
2023-05-13T07:15:00.231Z,100393.98
2023-05-13T07:17:27.301Z,100391.46
2023-05-13T07:19:54.269Z,100388.73
2023-05-13T07:22:21.165Z,100381.73
2023-05-13T07:24:48.130Z,100380.42
2023-05-13T07:27:14.971Z,100380.64
2023-05-13T07:29:41.830Z,100382.39
2023-05-13T07:32:08.987Z,100383.10
2023-05-13T07:34:36.278Z,100384.86
2023-05-13T07:37:05.438Z,100382.73
2023-05-13T07:39:32.387Z,100377.60
2023-05-13T07:41:59.271Z,100376.80
2023-05-13T07:44:26.698Z,100376.38
2023-05-13T07:46:53.779Z,100379.50
2023-05-13T07:49:21.176Z,100379.27
2023-05-13T07:51:48.170Z,100377.52
2023-05-13T07:54:15.120Z,100376.98
2023-05-13T07:56:44.451Z,100369.02
2023-05-13T07:59:11.473Z,100370.30
2023-05-13T08:01:38.447Z,100371.44
2023-05-13T08:04:05.512Z,100371.36
2023-05-13T08:06:33.122Z,100371.17
2023-05-13T08:09:00.252Z,100370.98
2023-05-13T08:11:28.104Z,100375.40
2023-05-13T08:13:55.027Z,100379.19
2023-05-13T08:16:22.020Z,100377.61
2023-05-13T08:18:48.960Z,100374.86
2023-05-13T08:21:15.897Z,100375.04
2023-05-13T08:23:45.713Z,100375.42
2023-05-13T08:26:13.682Z,100373.38
2023-05-13T08:28:42.338Z,100371.30
2023-05-13T08:31:12.196Z,100373.35
2023-05-13T08:33:41.945Z,100369.51
2023-05-13T08:36:09.556Z,100365.63
2023-05-13T08:38:36.446Z,100365.83
2023-05-13T08:41:06.835Z,100362.71
2023-05-13T08:43:34.090Z,100358.08
2023-05-13T08:46:04.577Z,100357.48
2023-05-13T08:48:32.023Z,100349.69
2023-05-13T08:50:58.942Z,100349.27
2023-05-13T08:53:26.503Z,100346.92
2023-05-13T08:55:53.411Z,100342.39
2023-05-13T08:58:20.307Z,100341.31
2023-05-13T09:00:51.048Z,100342.40
2023-05-13T09:03:17.871Z,100339.02
2023-05-13T09:05:44.779Z,100338.42
2023-05-13T09:08:12.476Z,100338.19
2023-05-13T09:10:39.570Z,100333.58
2023-05-13T09:13:07.265Z,100334.08
2023-05-13T09:15:34.126Z,100334.44
2023-05-13T09:18:05.810Z,100332.48
2023-05-13T09:20:33.103Z,100330.55
2023-05-13T09:23:05.196Z,100322.11
2023-05-13T09:25:32.149Z,100320.86
2023-05-13T09:28:00.607Z,100312.13
2023-05-13T09:30:28.722Z,100313.90
2023-05-13T09:33:10.394Z,100307.40
2023-05-13T09:35:39.414Z,100307.06
2023-05-13T09:38:19.566Z,100305.98
2023-05-13T09:40:53.608Z,100301.14
2023-05-13T09:43:27.974Z,100300.70
2023-05-13T09:45:55.809Z,100293.95
2023-05-13T09:48:25.875Z,100287.05
2023-05-13T09:50:53.559Z,100285.66
2023-05-13T09:53:23.401Z,100284.33
2023-05-13T09:55:55.941Z,100283.23
2023-05-13T09:58:24.584Z,100277.70
2023-05-13T10:00:52.039Z,100278.60
2023-05-13T10:03:19.254Z,100277.83
2023-05-13T10:05:46.178Z,100276.61
2023-05-13T10:08:13.972Z,100278.06
2023-05-13T10:10:42.546Z,100277.08
2023-05-13T10:13:11.110Z,100275.20
2023-05-13T10:15:51.488Z,100270.75
2023-05-13T10:18:19.083Z,100271.22
2023-05-13T10:20:47.173Z,100269.84
2023-05-13T10:23:14.185Z,100268.95
2023-05-13T10:25:41.086Z,100264.98
2023-05-13T10:28:08.379Z,100261.06
2023-05-13T10:30:36.056Z,100254.92
2023-05-13T10:33:03.549Z,100253.65
2023-05-13T10:35:36.020Z,100251.92
2023-05-13T10:38:08.467Z,100250.52
2023-05-13T10:41:09.699Z,100249.69
2023-05-13T10:43:37.560Z,100251.50
2023-05-13T10:46:08.683Z,100250.91
2023-05-13T10:48:43.560Z,100244.68
2023-05-13T10:51:14.200Z,100243.80
2023-05-13T10:53:50.600Z,100243.42
2023-05-13T10:56:22.160Z,100238.34
2023-05-13T10:59:05.366Z,100238.23
2023-05-13T11:01:37.872Z,100236.92
2023-05-13T11:04:05.631Z,100239.33
2023-05-13T11:06:36.888Z,100239.10
2023-05-13T11:09:08.141Z,100239.20
2023-05-13T11:11:36.050Z,100238.20
2023-05-13T11:14:19.484Z,100237.05
2023-05-13T11:16:47.295Z,100231.47
2023-05-13T11:19:27.506Z,100232.78
2023-05-13T11:22:05.739Z,100228.51
2023-05-13T11:24:32.994Z,100227.17
2023-05-13T11:27:00.161Z,100228.23
2023-05-13T11:29:34.777Z,100223.94
2023-05-13T11:32:03.325Z,100217.05
2023-05-13T11:34:30.913Z,100216.95
2023-05-13T11:37:04.525Z,100218.15
2023-05-13T11:39:32.252Z,100213.98
2023-05-13T11:42:02.005Z,100206.80
2023-05-13T11:44:29.150Z,100208.16
2023-05-13T11:46:56.821Z,100210.84
2023-05-13T11:49:40.363Z,100209.13
2023-05-13T11:52:08.910Z,100212.65
2023-05-13T11:54:47.445Z,100207.17
2023-05-13T11:57:16.511Z,100207.23
2023-05-13T12:00:10.410Z,100208.39
2023-05-13T12:02:38.842Z,100211.80
2023-05-13T12:05:10.110Z,100216.59
2023-05-13T12:07:38.236Z,100213.35
2023-05-13T12:10:06.429Z,100215.90
2023-05-13T12:12:35.089Z,100212.13
2023-05-13T12:15:06.976Z,100211.74
2023-05-13T12:17:37.042Z,100209.52
2023-05-13T12:20:20.829Z,100207.52
2023-05-13T12:22:48.296Z,100202.02
2023-05-13T12:25:45.219Z,100202.77
2023-05-13T12:28:19.003Z,100204.09
2023-05-13T12:30:53.799Z,100200.06
2023-05-13T12:33:24.917Z,100197.19
2023-05-13T12:35:53.701Z,100195.60
2023-05-13T12:38:22.215Z,100191.28
2023-05-13T12:40:49.317Z,100188.90
2023-05-13T12:43:17.300Z,100187.47
2023-05-13T12:45:45.716Z,100192.30
2023-05-13T12:48:12.828Z,100187.20
2023-05-13T12:50:39.843Z,100185.67
2023-05-13T12:53:06.804Z,100183.65
2023-05-13T12:55:33.745Z,100180.30
2023-05-13T12:58:03.082Z,100175.02
2023-05-13T13:00:30.654Z,100175.36
2023-05-13T13:02:57.676Z,100168.86
2023-05-13T13:05:24.824Z,100167.12
2023-05-13T13:07:52.052Z,100163.71
2023-05-13T13:10:19.206Z,100160.47
2023-05-13T13:12:46.361Z,100159.56
2023-05-13T13:15:13.687Z,100159.92
2023-05-13T13:17:40.636Z,100158.23
2023-05-13T13:20:08.400Z,100162.32
2023-05-13T13:22:38.294Z,100161.60
2023-05-13T13:25:06.197Z,100159.05
2023-05-13T13:27:33.778Z,100159.89
2023-05-13T13:30:00.758Z,100160.95
2023-05-13T13:32:27.832Z,100163.29
2023-05-13T13:34:54.970Z,100164.24
2023-05-13T13:37:21.922Z,100171.23
2023-05-13T13:39:48.765Z,100169.85
2023-05-13T13:42:15.618Z,100168.75
2023-05-13T13:44:42.837Z,100167.27
2023-05-13T13:47:09.806Z,100166.00
2023-05-13T13:49:38.569Z,100165.53
2023-05-13T13:52:05.536Z,100168.29
2023-05-13T13:54:32.444Z,100170.47
2023-05-13T13:56:59.483Z,100173.95
2023-05-13T13:59:26.450Z,100172.21
2023-05-13T14:01:54.232Z,100174.10
2023-05-13T14:04:23.829Z,100173.77
2023-05-13T14:06:51.351Z,100171.88
2023-05-13T14:09:18.756Z,100166.79
2023-05-13T14:11:45.915Z,100166.42
2023-05-13T14:14:12.957Z,100169.36
2023-05-13T14:16:40.302Z,100167.42
2023-05-13T14:19:07.351Z,100164.33
2023-05-13T14:21:34.832Z,100165.95
2023-05-13T14:24:01.724Z,100164.98
2023-05-13T14:26:29.751Z,100163.54
2023-05-13T14:28:57.051Z,100166.39
2023-05-13T14:31:24.045Z,100165.64
2023-05-13T14:33:51.092Z,100165.60
2023-05-13T14:36:20.546Z,100167.45
2023-05-13T14:38:47.371Z,100169.27
2023-05-13T14:41:20.014Z,100166.02
2023-05-13T14:43:47.344Z,100167.56
2023-05-13T14:46:14.194Z,100161.35
2023-05-13T14:48:41.038Z,100162.09
2023-05-13T14:51:07.961Z,100162.08
2023-05-13T14:53:34.766Z,100159.96
2023-05-13T14:56:01.612Z,100158.46
2023-05-13T14:58:28.451Z,100159.49
2023-05-13T15:00:55.527Z,100157.98
2023-05-13T15:03:22.493Z,100151.02
2023-05-13T15:05:50.388Z,100152.77
2023-05-13T15:08:17.368Z,100150.00
2023-05-13T15:10:44.602Z,100149.74
2023-05-13T15:13:11.646Z,100148.20
2023-05-13T15:15:38.604Z,100145.45
2023-05-13T15:18:06.196Z,100144.30
2023-05-13T15:20:33.150Z,100141.45
2023-05-13T15:23:00.108Z,100144.71
2023-05-13T15:25:27.053Z,100149.48
2023-05-13T15:27:54.378Z,100149.44
2023-05-13T15:30:21.351Z,100145.93
2023-05-13T15:32:48.313Z,100146.52
2023-05-13T15:35:16.282Z,100146.18
2023-05-13T15:37:43.417Z,100144.77
2023-05-13T15:40:11.100Z,100146.97
2023-05-13T15:42:38.044Z,100145.97
2023-05-13T15:45:05.699Z,100148.39
2023-05-13T15:47:32.717Z,100144.73
2023-05-13T15:49:59.730Z,100143.00
2023-05-13T15:52:27.092Z,100145.12
2023-05-13T15:54:53.931Z,100145.19
2023-05-13T15:57:20.831Z,100147.41
2023-05-13T15:59:47.663Z,100147.06
2023-05-13T16:02:14.531Z,100148.96
2023-05-13T16:04:41.493Z,100144.45
2023-05-13T16:07:11.104Z,100144.84
2023-05-13T16:09:39.085Z,100148.27
2023-05-13T16:12:06.546Z,100143.15
2023-05-13T16:14:33.937Z,100137.90
2023-05-13T16:17:00.913Z,100140.48
2023-05-13T16:19:27.834Z,100141.30
2023-05-13T16:21:54.687Z,100144.35
2023-05-13T16:24:22.612Z,100145.20
2023-05-13T16:26:49.740Z,100145.30
2023-05-13T16:29:17.392Z,100147.56
2023-05-13T16:31:44.473Z,100148.53
2023-05-13T16:34:11.357Z,100153.84
2023-05-13T16:36:38.539Z,100152.79
2023-05-13T16:39:05.581Z,100154.46
2023-05-13T16:41:33.370Z,100154.84
2023-05-13T16:44:00.316Z,100156.04
2023-05-13T16:46:27.218Z,100155.09
2023-05-13T16:48:54.318Z,100159.20
2023-05-13T16:51:21.683Z,100160.45
2023-05-13T16:53:48.489Z,100162.59
2023-05-13T16:56:15.638Z,100166.36
2023-05-13T16:58:42.482Z,100164.10
2023-05-13T17:01:09.342Z,100167.51
2023-05-13T17:03:36.245Z,100166.67
2023-05-13T17:06:03.288Z,100172.34
2023-05-13T17:08:30.104Z,100174.31
2023-05-13T17:10:56.914Z,100173.95
2023-05-13T17:13:23.835Z,100175.33
2023-05-13T17:15:51.449Z,100174.81
2023-05-13T17:18:18.335Z,100173.60
2023-05-13T17:20:45.989Z,100171.09
2023-05-13T17:23:12.790Z,100175.10
2023-05-13T17:25:39.627Z,100173.60
2023-05-13T17:28:09.328Z,100179.18
2023-05-13T17:30:36.278Z,100179.52
2023-05-13T17:33:03.161Z,100178.23
2023-05-13T17:35:30.186Z,100181.17
2023-05-13T17:37:57.135Z,100181.28
2023-05-13T17:40:24.156Z,100179.88
2023-05-13T17:42:52.824Z,100183.88
2023-05-13T17:45:20.351Z,100180.96
2023-05-13T17:47:47.622Z,100182.86
2023-05-13T17:50:15.075Z,100187.25
2023-05-13T17:52:41.962Z,100187.92
2023-05-13T17:55:09.457Z,100192.48
2023-05-13T17:57:36.324Z,100193.06
2023-05-13T18:00:06.948Z,100194.70
2023-05-13T18:02:36.242Z,100194.15
2023-05-13T18:05:03.367Z,100195.02
2023-05-13T18:07:30.826Z,100195.36
2023-05-13T18:09:57.839Z,100192.32
2023-05-13T18:12:27.760Z,100192.30
2023-05-13T18:14:55.113Z,100190.79
2023-05-13T18:17:22.528Z,100187.52
2023-05-13T18:19:49.533Z,100189.52
2023-05-13T18:22:16.407Z,100189.36
2023-05-13T18:24:43.447Z,100197.81
2023-05-13T18:27:10.486Z,100200.63
2023-05-13T18:29:37.451Z,100201.71
2023-05-13T18:32:05.222Z,100204.52
2023-05-13T18:34:33.090Z,100205.59
2023-05-13T18:37:00.183Z,100214.09
2023-05-13T18:39:27.062Z,100219.06
2023-05-13T18:41:53.871Z,100213.45
2023-05-13T18:44:20.918Z,100212.45
2023-05-13T18:46:47.806Z,100214.48
2023-05-13T18:49:14.686Z,100217.67
2023-05-13T18:51:41.506Z,100218.40
2023-05-13T18:54:08.386Z,100219.66
2023-05-13T18:56:35.206Z,100216.15
2023-05-13T18:59:02.052Z,100221.00
2023-05-13T19:01:29.082Z,100219.55
2023-05-13T19:03:56.870Z,100219.36
2023-05-13T19:06:23.969Z,100220.63
2023-05-13T19:08:50.809Z,100216.35
2023-05-13T19:11:17.664Z,100216.02
2023-05-13T19:13:47.686Z,100212.04
2023-05-13T19:16:15.632Z,100217.22
2023-05-13T19:18:42.644Z,100214.92
2023-05-13T19:21:09.493Z,100213.30
2023-05-13T19:23:37.422Z,100212.25
2023-05-13T19:26:04.271Z,100211.21
2023-05-13T19:28:31.740Z,100205.96
2023-05-13T19:30:58.600Z,100205.25
2023-05-13T19:33:26.264Z,100199.73
2023-05-13T19:35:53.210Z,100198.15
2023-05-13T19:38:21.515Z,100198.39
2023-05-13T19:40:48.417Z,100197.15
2023-05-13T19:43:15.257Z,100196.15
2023-05-13T19:45:42.263Z,100197.53
2023-05-13T19:48:09.565Z,100194.23
2023-05-13T19:50:36.530Z,100195.20
2023-05-13T19:53:03.506Z,100190.81
2023-05-13T19:55:30.561Z,100189.56
2023-05-13T19:57:57.408Z,100185.85
2023-05-13T20:00:24.836Z,100188.10
2023-05-13T20:02:52.293Z,100185.14
2023-05-13T20:05:19.452Z,100188.41
2023-05-13T20:07:46.263Z,100185.81
2023-05-13T20:10:13.599Z,100185.77
2023-05-13T20:12:41.166Z,100183.77
2023-05-13T20:15:10.315Z,100186.56
2023-05-13T20:17:37.264Z,100180.74
2023-05-13T20:20:05.341Z,100182.70
2023-05-13T20:22:32.469Z,100179.73
2023-05-13T20:24:59.340Z,100180.25
2023-05-13T20:27:26.182Z,100175.52
2023-05-13T20:29:53.207Z,100177.79
2023-05-13T20:32:24.904Z,100176.44
2023-05-13T20:34:52.833Z,100173.41
2023-05-13T20:37:22.617Z,100174.16
2023-05-13T20:39:50.852Z,100177.59
2023-05-13T20:42:17.984Z,100179.91
2023-05-13T20:44:46.433Z,100180.63
2023-05-13T20:47:13.779Z,100181.66
2023-05-13T20:49:43.923Z,100181.63
2023-05-13T20:52:11.466Z,100181.27
2023-05-13T20:54:38.679Z,100178.29
2023-05-13T20:57:05.775Z,100174.83
2023-05-13T20:59:32.784Z,100174.20
2023-05-13T21:01:59.691Z,100175.64
2023-05-13T21:04:26.810Z,100174.50
2023-05-13T21:06:53.755Z,100176.36
2023-05-13T21:09:20.799Z,100177.79
2023-05-13T21:11:47.764Z,100177.52
2023-05-13T21:14:14.611Z,100178.29
2023-05-13T21:16:41.487Z,100175.41
2023-05-13T21:19:08.458Z,100178.88
2023-05-13T21:21:35.335Z,100175.42
2023-05-13T21:24:02.162Z,100175.38
2023-05-13T21:26:29.032Z,100171.36
2023-05-13T21:28:55.999Z,100171.23
2023-05-13T21:31:23.801Z,100168.30
2023-05-13T21:33:50.830Z,100166.96
2023-05-13T21:36:17.689Z,100164.41
2023-05-13T21:38:44.619Z,100164.19
2023-05-13T21:41:11.479Z,100163.27
2023-05-13T21:43:38.323Z,100159.66
2023-05-13T21:46:06.695Z,100159.63
2023-05-13T21:48:33.591Z,100160.70
2023-05-13T21:51:00.756Z,100164.69
2023-05-13T21:53:28.275Z,100160.04
2023-05-13T21:55:56.757Z,100155.97
2023-05-13T21:58:23.751Z,100154.01
2023-05-13T22:00:52.837Z,100153.01
2023-05-13T22:03:19.901Z,100152.34
2023-05-13T22:05:46.806Z,100151.06
2023-05-13T22:08:13.678Z,100149.11
2023-05-13T22:10:41.128Z,100147.42
2023-05-13T22:13:08.094Z,100147.48
2023-05-13T22:15:35.034Z,100145.61
2023-05-13T22:18:02.041Z,100145.64
2023-05-13T22:20:29.142Z,100145.02
2023-05-13T22:22:56.007Z,100143.53
2023-05-13T22:25:22.844Z,100145.29
2023-05-13T22:27:50.788Z,100144.80
2023-05-13T22:30:18.174Z,100143.95
2023-05-13T22:32:45.073Z,100145.55
2023-05-13T22:35:12.186Z,100142.77
2023-05-13T22:37:39.146Z,100140.90
2023-05-13T22:40:07.215Z,100142.24
2023-05-13T22:42:34.062Z,100143.77
2023-05-13T22:45:01.077Z,100139.48
2023-05-13T22:47:28.063Z,100142.82
2023-05-13T22:49:55.019Z,100143.33
2023-05-13T22:52:21.875Z,100141.23
2023-05-13T22:54:48.821Z,100142.55
2023-05-13T22:57:15.760Z,100140.36
2023-05-13T22:59:42.613Z,100141.49
2023-05-13T23:02:09.600Z,100141.98
2023-05-13T23:04:36.775Z,100142.42
2023-05-13T23:07:04.076Z,100143.44
2023-05-13T23:09:31.023Z,100145.11
2023-05-13T23:11:57.974Z,100143.95
2023-05-13T23:14:27.732Z,100143.21
2023-05-13T23:16:54.639Z,100140.33
2023-05-13T23:19:21.693Z,100139.16
2023-05-13T23:21:48.546Z,100141.34
2023-05-13T23:24:15.386Z,100142.84
2023-05-13T23:26:44.281Z,100139.56
2023-05-13T23:29:12.041Z,100143.16
2023-05-13T23:31:40.495Z,100145.03
2023-05-13T23:34:08.317Z,100145.61
2023-05-13T23:36:35.479Z,100147.06
2023-05-13T23:39:02.448Z,100147.53
2023-05-13T23:41:29.381Z,100149.88
2023-05-13T23:43:56.536Z,100148.73
2023-05-13T23:46:23.589Z,100150.34
2023-05-13T23:48:50.734Z,100156.05
2023-05-13T23:51:17.691Z,100157.19
2023-05-13T23:53:44.665Z,100158.50
2023-05-13T23:56:11.593Z,100161.13
2023-05-13T23:58:38.543Z,100159.63
